Time;durP1;ratioP1;P1;durP2;ratioP2;P2;SDS_P1;SDS_P2;PMS_P1;PMS_P2;Temp;Humidity;BMP_temperature;BMP_pressure;BME280_temperature;BME280_humidity;BME280_pressure;Samples;Min_cycle;Max_cycle;Signal;HPM_P1;HPM_P2
2021/06/10 00:00:40;;;;;;;10.70;9.70;;;16.30;99.90;;;;;;485220;245;28969;-65
2021/06/10 00:02:41;;;;;;;11.03;9.43;;;16.20;99.90;;;;;;475163;249;30166;-66
2021/06/10 00:04:42;;;;;;;11.20;9.80;;;16.10;99.90;;;;;;475696;247;29328;-65
2021/06/10 00:06:43;;;;;;;10.80;9.80;;;16.20;99.90;;;;;;484774;245;29350;-67
2021/06/10 00:08:45;;;;;;;10.73;9.63;;;16.10;99.90;;;;;;484143;245;28862;-64
2021/06/10 00:10:46;;;;;;;11.63;10.63;;;16.10;99.90;;;;;;484129;245;28788;-65
2021/06/10 00:12:47;;;;;;;10.80;9.80;;;16.10;99.90;;;;;;484102;245;28864;-66
2021/06/10 00:14:48;;;;;;;17.13;9.90;;;16.10;99.90;;;;;;484114;245;28855;-65
2021/06/10 00:16:50;;;;;;;10.80;9.70;;;16.00;99.90;;;;;;484150;245;28881;-66
2021/06/10 00:18:52;;;;;;;11.40;10.40;;;16.00;99.90;;;;;;484120;245;28875;-65
2021/06/10 00:20:52;;;;;;;11.70;10.43;;;16.10;99.90;;;;;;484094;245;29460;-66
2021/06/10 00:22:55;;;;;;;10.93;9.93;;;16.10;99.90;;;;;;484110;245;29238;-65
2021/06/10 00:24:55;;;;;;;14.70;10.20;;;16.00;99.90;;;;;;484081;245;28763;-66
2021/06/10 00:26:56;;;;;;;10.83;9.93;;;16.00;99.90;;;;;;484172;245;28945;-67
2021/06/10 00:28:57;;;;;;;10.53;9.53;;;16.00;99.90;;;;;;484152;245;28750;-65
2021/06/10 00:30:59;;;;;;;10.53;9.43;;;16.00;99.90;;;;;;484134;245;28919;-65
2021/06/10 00:33:00;;;;;;;10.20;9.30;;;16.00;99.90;;;;;;484119;245;28752;-65
2021/06/10 00:35:01;;;;;;;10.93;9.83;;;16.00;99.90;;;;;;484152;245;28842;-65
2021/06/10 00:37:02;;;;;;;10.30;9.30;;;16.00;99.90;;;;;;484142;245;29397;-67
2021/06/10 00:39:03;;;;;;;10.10;9.20;;;16.00;99.90;;;;;;484147;245;29238;-65
2021/06/10 00:41:05;;;;;;;10.53;9.43;;;16.00;99.90;;;;;;484144;245;29399;-65
2021/06/10 00:43:06;;;;;;;11.43;9.90;;;15.90;99.90;;;;;;484172;245;28756;-65
2021/06/10 00:45:07;;;;;;;12.73;10.77;;;15.90;99.90;;;;;;484139;245;28793;-66
2021/06/10 00:47:10;;;;;;;10.63;9.63;;;15.90;99.90;;;;;;484133;245;28817;-67
2021/06/10 00:49:11;;;;;;;12.30;10.40;;;15.90;99.90;;;;;;484145;245;28868;-65
2021/06/10 00:51:12;;;;;;;10.43;9.43;;;16.00;99.90;;;;;;484156;245;29285;-66
2021/06/10 00:53:25;;;;;;;10.30;8.90;;;16.00;99.90;;;;;;484201;245;29211;-65
2021/06/10 00:55:15;;;;;;;9.90;8.90;;;16.10;99.90;;;;;;482132;245;29344;-67
2021/06/10 00:57:16;;;;;;;9.70;8.80;;;16.00;99.90;;;;;;484209;245;28757;-65
2021/06/10 00:59:17;;;;;;;10.60;8.80;;;16.00;99.90;;;;;;484192;245;28788;-66
2021/06/10 01:01:19;;;;;;;10.23;9.23;;;16.00;99.90;;;;;;484187;245;28777;-65
2021/06/10 01:03:20;;;;;;;10.10;9.10;;;15.90;99.90;;;;;;484182;245;28871;-65
2021/06/10 01:05:21;;;;;;;11.03;9.87;;;15.90;99.90;;;;;;484164;245;28792;-66
2021/06/10 01:07:23;;;;;;;9.50;8.60;;;15.90;99.90;;;;;;484161;245;28863;-66
2021/06/10 01:09:24;;;;;;;10.07;9.17;;;15.90;99.90;;;;;;484148;245;28782;-65
2021/06/10 01:11:25;;;;;;;9.37;8.57;;;15.90;99.90;;;;;;484160;245;29281;-65
2021/06/10 01:13:26;;;;;;;10.37;9.40;;;15.80;99.90;;;;;;484137;244;29355;-65
2021/06/10 01:15:28;;;;;;;10.23;9.33;;;15.70;99.90;;;;;;484170;245;29271;-67
2021/06/10 01:17:29;;;;;;;11.80;9.27;;;15.70;99.90;;;;;;484193;245;28828;-65
2021/06/10 01:19:30;;;;;;;11.80;9.07;;;15.70;99.90;;;;;;484181;245;28788;-66
2021/06/10 01:21:31;;;;;;;11.13;10.10;;;15.60;99.90;;;;;;484154;245;28772;-65
2021/06/10 01:23:32;;;;;;;9.97;8.80;;;15.60;99.90;;;;;;484193;245;28872;-65
2021/06/10 01:25:34;;;;;;;12.77;11.57;;;15.60;99.90;;;;;;484197;245;28800;-67
2021/06/10 01:27:35;;;;;;;10.40;9.40;;;15.60;99.90;;;;;;484157;245;28785;-65
2021/06/10 01:29:36;;;;;;;8.97;8.00;;;15.50;99.90;;;;;;484152;245;29396;-65
2021/06/10 01:31:37;;;;;;;11.23;10.07;;;15.60;99.90;;;;;;484126;245;29224;-65
2021/06/10 01:33:39;;;;;;;11.70;10.60;;;15.60;99.90;;;;;;484189;245;28830;-65
2021/06/10 01:35:40;;;;;;;9.70;8.80;;;15.50;99.90;;;;;;484168;245;28873;-66
2021/06/10 01:37:41;;;;;;;13.43;8.83;;;15.50;99.90;;;;;;484105;245;28759;-66
2021/06/10 01:39:42;;;;;;;10.77;9.87;;;15.40;99.90;;;;;;484151;245;28817;-66
2021/06/10 01:41:44;;;;;;;10.37;9.47;;;15.40;99.90;;;;;;484161;245;28764;-65
2021/06/10 01:43:45;;;;;;;10.70;9.70;;;15.40;99.90;;;;;;484181;245;28804;-65
2021/06/10 01:45:49;;;;;;;9.40;8.57;;;15.40;99.90;;;;;;484142;245;28784;-66
2021/06/10 01:47:47;;;;;;;10.60;9.67;;;15.30;99.90;;;;;;483960;245;29777;-65
2021/06/10 01:49:49;;;;;;;10.67;9.57;;;15.30;99.90;;;;;;484152;245;29366;-66
2021/06/10 01:51:50;;;;;;;9.43;8.53;;;15.30;99.90;;;;;;484144;245;29442;-65
2021/06/10 01:53:51;;;;;;;10.90;9.90;;;15.30;99.90;;;;;;484155;245;28747;-65
2021/06/10 01:55:54;;;;;;;10.53;9.63;;;15.30;99.90;;;;;;484154;245;28863;-65
2021/06/10 01:57:54;;;;;;;11.20;9.17;;;15.30;99.90;;;;;;484075;245;28793;-65
2021/06/10 01:59:55;;;;;;;10.90;9.90;;;15.30;99.90;;;;;;484122;245;28829;-65
2021/06/10 02:01:56;;;;;;;9.70;8.80;;;15.30;99.90;;;;;;484154;245;28824;-67
2021/06/10 02:03:57;;;;;;;10.93;9.93;;;15.30;99.90;;;;;;484147;245;28841;-65
2021/06/10 02:05:59;;;;;;;11.63;10.50;;;15.30;99.90;;;;;;484169;245;28807;-65
2021/06/10 02:08:00;;;;;;;11.43;10.33;;;15.20;99.90;;;;;;484126;245;29374;-65
2021/06/10 02:10:01;;;;;;;11.40;10.30;;;15.20;99.90;;;;;;484121;245;29261;-65
2021/06/10 02:12:02;;;;;;;10.40;9.37;;;15.20;99.90;;;;;;484158;245;28873;-67
2021/06/10 02:14:04;;;;;;;10.07;9.10;;;15.20;99.90;;;;;;484158;245;28772;-66
2021/06/10 02:16:05;;;;;;;10.50;9.37;;;15.20;99.90;;;;;;484133;245;28866;-65
2021/06/10 02:18:06;;;;;;;9.77;8.77;;;15.10;99.90;;;;;;484127;245;28849;-66
2021/06/10 02:20:07;;;;;;;11.60;10.40;;;15.00;99.90;;;;;;484139;245;28782;-66
2021/06/10 02:22:09;;;;;;;10.70;9.00;;;15.00;99.90;;;;;;484166;245;28904;-66
2021/06/10 02:24:10;;;;;;;10.20;8.97;;;15.00;99.90;;;;;;484166;245;29283;-65
2021/06/10 02:26:11;;;;;;;10.03;9.13;;;15.00;99.90;;;;;;484166;245;29338;-65
2021/06/10 02:28:12;;;;;;;10.23;9.23;;;15.00;99.90;;;;;;484158;245;29048;-65
2021/06/10 02:30:14;;;;;;;8.60;7.80;;;14.90;99.90;;;;;;484180;245;28749;-65
2021/06/10 02:32:15;;;;;;;10.90;9.80;;;14.90;99.90;;;;;;484156;245;28794;-66
2021/06/10 02:34:16;;;;;;;9.37;8.57;;;15.00;99.90;;;;;;484132;245;28754;-65
2021/06/10 02:36:18;;;;;;;9.57;8.77;;;14.90;99.90;;;;;;484143;245;28803;-65
2021/06/10 02:38:19;;;;;;;10.53;9.53;;;14.90;99.90;;;;;;484174;245;28880;-68
2021/06/10 02:40:20;;;;;;;10.20;9.20;;;14.90;99.90;;;;;;484161;245;28860;-65
2021/06/10 02:42:21;;;;;;;10.20;9.20;;;14.80;99.90;;;;;;484181;243;28828;-65
2021/06/10 02:44:23;;;;;;;10.33;9.40;;;14.70;99.90;;;;;;484164;245;29220;-65
2021/06/10 02:46:24;;;;;;;11.47;10.30;;;14.70;99.90;;;;;;484169;245;29282;-65
2021/06/10 02:48:25;;;;;;;9.13;8.13;;;14.60;99.90;;;;;;484214;245;28858;-66
2021/06/10 02:50:26;;;;;;;9.90;9.00;;;14.70;99.90;;;;;;484118;245;28592;-65
2021/06/10 02:52:28;;;;;;;10.00;9.03;;;14.70;99.90;;;;;;484123;245;28939;-66
2021/06/10 02:54:29;;;;;;;11.00;9.93;;;14.70;99.90;;;;;;484129;245;28868;-65
2021/06/10 02:56:30;;;;;;;11.67;10.57;;;14.70;99.90;;;;;;484162;245;28383;-66
2021/06/10 02:58:31;;;;;;;10.87;9.87;;;14.70;99.90;;;;;;484148;245;28885;-67
2021/06/10 03:00:33;;;;;;;10.47;9.47;;;14.70;99.90;;;;;;484139;245;29331;-64
2021/06/10 03:02:34;;;;;;;10.53;9.50;;;14.70;99.90;;;;;;484128;245;29032;-65
2021/06/10 03:04:35;;;;;;;10.30;9.40;;;14.70;99.90;;;;;;484133;245;29290;-65
2021/06/10 03:06:36;;;;;;;11.90;10.80;;;14.70;99.90;;;;;;484152;245;28815;-65
2021/06/10 03:08:38;;;;;;;13.03;11.77;;;14.70;99.90;;;;;;484135;245;28881;-66
2021/06/10 03:10:39;;;;;;;11.87;10.67;;;14.80;99.90;;;;;;484152;245;28741;-65
2021/06/10 03:12:40;;;;;;;11.63;10.60;;;14.70;99.90;;;;;;484121;245;28888;-66
2021/06/10 03:14:41;;;;;;;10.47;9.47;;;14.70;99.90;;;;;;484097;245;28915;-65
2021/06/10 03:16:43;;;;;;;10.43;9.50;;;14.70;99.90;;;;;;484170;245;29310;-65
2021/06/10 03:18:44;;;;;;;11.40;10.20;;;14.70;99.90;;;;;;484148;245;29264;-65
2021/06/10 03:20:45;;;;;;;10.73;9.73;;;14.70;99.90;;;;;;484147;245;29348;-65
2021/06/10 03:22:46;;;;;;;10.30;9.40;;;14.70;99.90;;;;;;484116;245;28885;-65
2021/06/10 03:24:49;;;;;;;10.70;9.57;;;14.70;99.90;;;;;;484181;245;28899;-68
2021/06/10 03:26:50;;;;;;;12.77;11.47;;;14.60;99.90;;;;;;484115;245;28554;-66
2021/06/10 03:28:52;;;;;;;12.60;11.20;;;14.60;99.90;;;;;;484141;245;29959;-66
2021/06/10 03:30:53;;;;;;;12.23;11.07;;;14.70;99.90;;;;;;484151;245;29210;-66
2021/06/10 03:32:54;;;;;;;12.90;11.60;;;14.60;99.90;;;;;;484151;245;28793;-66
2021/06/10 03:34:55;;;;;;;11.80;10.70;;;14.60;99.90;;;;;;484136;245;28766;-65
2021/06/10 03:36:57;;;;;;;17.50;12.93;;;14.60;99.90;;;;;;484179;245;28982;-65
2021/06/10 03:38:58;;;;;;;12.40;11.10;;;14.60;99.90;;;;;;484128;245;28875;-65
2021/06/10 03:40:59;;;;;;;12.33;11.13;;;14.60;99.90;;;;;;483936;245;28750;-65
2021/06/10 03:43:00;;;;;;;11.90;10.70;;;14.60;99.90;;;;;;484097;245;29316;-67
2021/06/10 03:45:02;;;;;;;11.73;10.63;;;14.60;99.90;;;;;;484166;245;29227;-66
2021/06/10 03:47:03;;;;;;;11.30;10.23;;;14.60;99.90;;;;;;484121;245;28874;-65
2021/06/10 03:49:04;;;;;;;13.07;11.80;;;14.60;99.90;;;;;;484125;245;28857;-65
2021/06/10 03:51:05;;;;;;;11.83;10.63;;;14.60;99.90;;;;;;484129;245;28781;-65
2021/06/10 03:53:07;;;;;;;12.70;11.40;;;14.60;99.90;;;;;;484160;245;28797;-65
2021/06/10 03:55:08;;;;;;;13.10;11.80;;;14.60;99.90;;;;;;484098;245;28813;-65
2021/06/10 03:57:09;;;;;;;12.27;10.97;;;14.60;99.90;;;;;;484113;245;29246;-66
2021/06/10 03:59:10;;;;;;;12.80;11.67;;;14.60;99.90;;;;;;484127;245;29412;-67
2021/06/10 04:01:12;;;;;;;14.97;13.57;;;14.60;99.90;;;;;;484126;245;28737;-65
2021/06/10 04:03:13;;;;;;;14.90;13.40;;;14.60;99.90;;;;;;484137;245;28796;-65
2021/06/10 04:05:14;;;;;;;14.43;12.93;;;14.60;99.90;;;;;;484106;245;28838;-66
2021/06/10 04:07:15;;;;;;;14.70;13.30;;;14.60;99.90;;;;;;484109;245;28889;-65
2021/06/10 04:09:17;;;;;;;15.70;13.83;;;14.60;99.90;;;;;;484157;245;28876;-67
2021/06/10 04:11:18;;;;;;;14.23;12.10;;;14.70;99.90;;;;;;484146;245;29335;-65
2021/06/10 04:13:19;;;;;;;14.20;12.80;;;14.70;99.90;;;;;;484114;245;29264;-65
2021/06/10 04:15:20;;;;;;;14.07;12.43;;;14.70;99.90;;;;;;484124;245;29420;-65
2021/06/10 04:17:22;;;;;;;13.20;12.03;;;14.70;99.90;;;;;;484087;245;28855;-66
2021/06/10 04:19:23;;;;;;;12.47;11.30;;;14.70;99.90;;;;;;484178;245;28783;-67
2021/06/10 04:21:24;;;;;;;15.13;13.50;;;14.70;99.90;;;;;;484111;245;28754;-65
2021/06/10 04:23:25;;;;;;;13.70;12.40;;;14.70;99.90;;;;;;484106;245;28819;-66
2021/06/10 04:25:27;;;;;;;15.00;13.50;;;14.80;99.90;;;;;;484021;245;28894;-65
2021/06/10 04:27:28;;;;;;;14.77;13.40;;;14.80;99.90;;;;;;484063;245;29316;-64
2021/06/10 04:29:29;;;;;;;15.93;14.17;;;14.80;99.90;;;;;;484127;245;29253;-67
2021/06/10 04:31:31;;;;;;;18.50;16.70;;;14.90;99.90;;;;;;484098;245;28843;-65
2021/06/10 04:33:32;;;;;;;15.57;14.13;;;14.90;99.90;;;;;;484098;245;28879;-66
2021/06/10 04:35:33;;;;;;;15.07;13.70;;;15.00;99.90;;;;;;484093;245;28923;-65
2021/06/10 04:37:34;;;;;;;16.80;15.10;;;15.00;99.90;;;;;;484089;245;29003;-65
2021/06/10 04:39:36;;;;;;;14.80;13.40;;;15.00;99.90;;;;;;484126;245;29195;-67
2021/06/10 04:41:37;;;;;;;16.50;14.90;;;15.10;99.90;;;;;;484136;245;29205;-65
2021/06/10 04:43:38;;;;;;;17.73;15.87;;;15.10;99.90;;;;;;484165;245;29333;-65
2021/06/10 04:45:39;;;;;;;15.63;13.97;;;15.10;99.90;;;;;;484128;245;28835;-65
2021/06/10 04:47:41;;;;;;;15.73;14.23;;;15.10;99.90;;;;;;484100;245;28963;-66
2021/06/10 04:49:44;;;;;;;14.80;13.40;;;15.20;99.90;;;;;;484150;245;28784;-66
2021/06/10 04:51:44;;;;;;;15.00;13.50;;;15.20;99.90;;;;;;484125;245;28932;-66
2021/06/10 04:53:46;;;;;;;19.00;17.10;;;15.30;99.90;;;;;;484102;245;29339;-65
2021/06/10 04:55:47;;;;;;;15.93;14.27;;;15.30;99.90;;;;;;484077;245;29397;-65
2021/06/10 04:57:48;;;;;;;16.43;14.50;;;15.30;99.90;;;;;;484121;245;28769;-67
2021/06/10 04:59:49;;;;;;;16.30;14.60;;;15.40;99.90;;;;;;484134;245;28766;-65
2021/06/10 05:01:51;;;;;;;14.37;13.07;;;15.30;99.90;;;;;;484144;245;28964;-66
2021/06/10 05:03:52;;;;;;;14.30;12.80;;;15.30;99.90;;;;;;484142;245;28852;-66
2021/06/10 05:05:53;;;;;;;15.63;14.07;;;15.30;99.90;;;;;;484132;245;28756;-65
2021/06/10 05:07:54;;;;;;;13.87;12.47;;;15.30;99.90;;;;;;484045;245;29363;-67
2021/06/10 05:09:56;;;;;;;13.20;12.00;;;15.30;99.90;;;;;;484149;245;29281;-65
2021/06/10 05:11:57;;;;;;;16.60;14.97;;;15.30;99.90;;;;;;484102;245;28787;-66
2021/06/10 05:13:58;;;;;;;15.63;14.03;;;15.40;99.90;;;;;;484110;245;28782;-65
2021/06/10 05:15:59;;;;;;;16.27;14.77;;;15.50;99.90;;;;;;484148;245;28820;-65
2021/06/10 05:18:01;;;;;;;14.93;13.27;;;15.60;99.90;;;;;;484150;245;28886;-66
2021/06/10 05:20:02;;;;;;;14.70;13.23;;;15.70;99.90;;;;;;484124;245;29112;-65
2021/06/10 05:22:03;;;;;;;13.47;12.27;;;15.80;99.90;;;;;;484106;245;29245;-65
2021/06/10 05:24:05;;;;;;;12.90;11.60;;;15.80;99.90;;;;;;484107;245;29395;-65
2021/06/10 05:26:06;;;;;;;13.57;12.37;;;15.80;99.90;;;;;;484120;245;28888;-66
2021/06/10 05:28:07;;;;;;;12.70;11.50;;;15.70;99.90;;;;;;484143;245;28803;-67
2021/06/10 05:30:08;;;;;;;12.97;11.67;;;15.60;99.90;;;;;;484158;245;28809;-65
2021/06/10 05:32:09;;;;;;;11.87;10.67;;;15.60;99.90;;;;;;484159;245;28892;-66
2021/06/10 05:34:11;;;;;;;12.23;11.00;;;15.60;99.90;;;;;;484169;245;28854;-65
2021/06/10 05:36:12;;;;;;;15.03;11.63;;;15.80;99.90;;;;;;484137;245;29194;-66
2021/06/10 05:38:13;;;;;;;13.57;12.30;;;15.90;99.90;;;;;;484135;245;29242;-66
2021/06/10 05:40:14;;;;;;;12.03;10.93;;;16.10;99.90;;;;;;484140;245;28844;-65
2021/06/10 05:42:16;;;;;;;13.10;11.90;;;16.20;99.90;;;;;;484155;245;28889;-65
2021/06/10 05:44:17;;;;;;;14.30;13.00;;;16.50;99.90;;;;;;484174;245;28834;-65
2021/06/10 05:46:20;;;;;;;15.33;13.83;;;16.70;99.90;;;;;;484164;245;28869;-65
2021/06/10 05:48:20;;;;;;;16.57;15.07;;;16.90;99.90;;;;;;484041;245;28788;-66
2021/06/10 05:50:21;;;;;;;16.33;14.63;;;17.10;99.90;;;;;;484177;245;29290;-65
2021/06/10 05:52:23;;;;;;;19.70;17.80;;;17.20;99.90;;;;;;483993;245;29285;-65
2021/06/10 05:54:23;;;;;;;19.20;17.17;;;17.30;99.90;;;;;;484110;245;28803;-67
2021/06/10 05:56:24;;;;;;;17.57;15.87;;;17.30;99.90;;;;;;484140;245;28776;-65
2021/06/10 05:58:26;;;;;;;19.90;18.00;;;17.40;99.90;;;;;;484153;245;28881;-66
2021/06/10 06:00:27;;;;;;;18.70;16.90;;;17.40;99.90;;;;;;484150;245;28756;-65
2021/06/10 06:02:28;;;;;;;18.93;17.10;;;17.40;99.90;;;;;;484024;245;28877;-65
2021/06/10 06:04:30;;;;;;;17.43;15.70;;;17.40;99.90;;;;;;483984;245;29713;-67
2021/06/10 06:06:31;;;;;;;18.37;16.57;;;17.40;99.90;;;;;;483954;245;28782;-65
2021/06/10 06:08:32;;;;;;;19.00;17.17;;;17.30;99.90;;;;;;483935;245;28918;-65
2021/06/10 06:10:34;;;;;;;19.30;17.40;;;17.30;99.90;;;;;;484019;245;28767;-65
2021/06/10 06:12:36;;;;;;;19.67;17.83;;;17.30;99.90;;;;;;484114;245;28750;-66
2021/06/10 06:14:37;;;;;;;18.10;16.30;;;17.30;99.90;;;;;;484167;245;29441;-68
2021/06/10 06:16:37;;;;;;;21.17;19.17;;;17.40;99.90;;;;;;484141;245;29302;-65
2021/06/10 06:18:39;;;;;;;21.07;19.03;;;17.40;99.90;;;;;;484187;245;28796;-65
2021/06/10 06:20:40;;;;;;;22.13;19.90;;;17.50;99.90;;;;;;484152;243;28756;-65
2021/06/10 06:22:44;;;;;;;28.73;21.80;;;17.50;99.90;;;;;;484166;245;28788;-65
2021/06/10 06:24:45;;;;;;;22.43;19.90;;;17.60;99.90;;;;;;484157;245;29230;-65
2021/06/10 06:26:46;;;;;;;22.70;20.50;;;17.60;99.90;;;;;;484173;245;28835;-66
2021/06/10 06:28:48;;;;;;;21.93;19.70;;;17.60;99.90;;;;;;484140;243;28815;-66
2021/06/10 06:30:49;;;;;;;21.80;17.93;;;17.70;99.90;;;;;;484141;245;29243;-66
2021/06/10 06:32:50;;;;;;;21.17;19.00;;;17.80;99.90;;;;;;484152;245;29514;-65
2021/06/10 06:34:51;;;;;;;22.07;18.67;;;17.80;99.90;;;;;;484192;245;28735;-65
2021/06/10 06:36:53;;;;;;;18.67;16.87;;;17.90;99.90;;;;;;484169;245;28789;-66
2021/06/10 06:38:54;;;;;;;20.70;18.70;;;17.90;99.90;;;;;;484126;245;28888;-66
2021/06/10 06:40:55;;;;;;;20.80;18.77;;;18.00;99.90;;;;;;484121;245;28807;-65
2021/06/10 06:42:56;;;;;;;19.43;17.53;;;18.10;99.90;;;;;;484166;245;29204;-68
2021/06/10 06:44:58;;;;;;;18.70;16.90;;;18.10;99.90;;;;;;484171;245;29230;-65
2021/06/10 06:46:59;;;;;;;18.20;16.50;;;18.20;99.90;;;;;;484169;245;29257;-66
2021/06/10 06:49:00;;;;;;;17.23;15.70;;;18.20;99.90;;;;;;484153;245;28751;-66
2021/06/10 06:51:01;;;;;;;18.43;16.63;;;18.30;99.90;;;;;;484155;245;28782;-66
2021/06/10 06:53:04;;;;;;;18.90;17.03;;;18.40;99.90;;;;;;484188;245;28890;-68
2021/06/10 06:55:05;;;;;;;19.77;17.87;;;18.50;99.90;;;;;;484131;245;28810;-66
2021/06/10 06:57:06;;;;;;;22.50;20.30;;;18.60;99.90;;;;;;484121;245;29252;-65
2021/06/10 06:59:08;;;;;;;21.57;19.47;;;18.60;99.90;;;;;;484159;245;29231;-65
2021/06/10 07:01:09;;;;;;;18.67;16.83;;;18.70;99.90;;;;;;484180;245;28799;-67
2021/06/10 07:03:10;;;;;;;23.20;20.97;;;18.80;99.90;;;;;;484153;245;28764;-66
2021/06/10 07:05:11;;;;;;;21.20;18.10;;;18.90;99.90;;;;;;484157;245;28823;-66
2021/06/10 07:07:13;;;;;;;23.67;21.17;;;19.00;99.90;;;;;;484124;245;28855;-66
2021/06/10 07:09:14;;;;;;;23.17;20.73;;;19.10;99.90;;;;;;484138;245;28828;-66
2021/06/10 07:11:15;;;;;;;22.57;20.03;;;19.30;99.90;;;;;;484183;245;29281;-67
2021/06/10 07:13:17;;;;;;;24.30;21.40;;;19.40;99.90;;;;;;484122;245;29283;-65
2021/06/10 07:15:18;;;;;;;20.50;18.23;;;19.30;99.90;;;;;;484131;245;28804;-67
2021/06/10 07:17:19;;;;;;;18.33;16.63;;;19.30;99.90;;;;;;484151;245;28852;-65
2021/06/10 07:19:20;;;;;;;20.00;18.00;;;19.40;99.90;;;;;;484156;245;28751;-65
2021/06/10 07:21:22;;;;;;;20.27;18.27;;;19.40;99.90;;;;;;484152;245;28827;-66
2021/06/10 07:23:23;;;;;;;19.63;17.67;;;19.60;99.90;;;;;;484116;245;28878;-65
2021/06/10 07:25:24;;;;;;;16.53;14.97;;;19.70;99.90;;;;;;484170;245;29259;-66
2021/06/10 07:27:25;;;;;;;20.43;18.07;;;19.70;99.90;;;;;;484117;245;30085;-66
2021/06/10 07:29:27;;;;;;;19.77;17.87;;;19.90;99.90;;;;;;484134;245;28795;-66
2021/06/10 07:31:28;;;;;;;18.70;16.93;;;20.00;99.90;;;;;;484155;245;28804;-66
2021/06/10 07:33:29;;;;;;;19.00;14.43;;;20.00;99.90;;;;;;484182;245;28758;-65
2021/06/10 07:35:32;;;;;;;17.63;15.93;;;20.10;99.90;;;;;;484171;243;28806;-66
2021/06/10 07:37:32;;;;;;;17.90;14.70;;;20.20;99.90;;;;;;484138;245;28813;-67
2021/06/10 07:39:33;;;;;;;16.63;15.10;;;20.20;99.90;;;;;;484154;245;29230;-65
2021/06/10 07:41:34;;;;;;;15.50;14.10;;;20.20;99.90;;;;;;484169;245;29334;-66
2021/06/10 07:43:35;;;;;;;13.60;12.40;;;20.30;99.90;;;;;;484093;245;28852;-66
2021/06/10 07:45:37;;;;;;;14.77;13.40;;;20.40;99.90;;;;;;484153;245;28800;-66
2021/06/10 07:47:38;;;;;;;16.57;14.97;;;20.40;99.90;;;;;;484159;245;28797;-68
2021/06/10 07:49:39;;;;;;;14.93;13.50;;;20.50;99.90;;;;;;484213;245;28848;-66
2021/06/10 07:51:40;;;;;;;12.43;11.30;;;20.60;99.90;;;;;;484166;245;28889;-67
2021/06/10 07:53:42;;;;;;;13.20;11.80;;;20.60;99.90;;;;;;484166;245;28788;-66
2021/06/10 07:55:43;;;;;;;13.60;12.30;;;20.60;99.90;;;;;;484205;244;29328;-66
2021/06/10 07:57:44;;;;;;;13.77;12.50;;;20.60;99.90;;;;;;484208;245;28811;-68
2021/06/10 07:59:46;;;;;;;12.77;11.57;;;20.80;99.90;;;;;;484169;245;28760;-66
2021/06/10 08:01:47;;;;;;;12.67;11.50;;;20.80;99.90;;;;;;484179;245;28786;-66
2021/06/10 08:03:48;;;;;;;14.73;12.20;;;20.70;99.90;;;;;;484133;245;28831;-66
2021/06/10 08:05:50;;;;;;;13.50;12.20;;;20.90;99.90;;;;;;484159;245;28813;-67
2021/06/10 08:07:52;;;;;;;11.97;10.87;;;21.00;99.90;;;;;;484130;245;29699;-66
2021/06/10 08:09:52;;;;;;;16.30;12.77;;;20.90;99.90;;;;;;484161;244;29332;-65
2021/06/10 08:11:53;;;;;;;10.93;10.00;;;21.00;99.90;;;;;;484160;244;29253;-66
2021/06/10 08:13:54;;;;;;;11.73;10.73;;;20.90;99.90;;;;;;484118;245;28829;-65
2021/06/10 08:15:55;;;;;;;11.80;10.60;;;20.80;99.90;;;;;;484134;245;28838;-66
2021/06/10 08:17:58;;;;;;;10.97;9.80;;;20.90;99.90;;;;;;484161;245;28895;-66
2021/06/10 08:19:58;;;;;;;17.13;11.40;;;21.10;99.90;;;;;;484108;245;28757;-66
2021/06/10 08:21:59;;;;;;;11.30;10.20;;;21.10;99.90;;;;;;484156;245;28840;-66
2021/06/10 08:24:01;;;;;;;13.10;11.80;;;21.20;99.90;;;;;;484150;245;29222;-66
2021/06/10 08:26:03;;;;;;;14.97;12.10;;;21.20;99.90;;;;;;484152;245;29316;-66
2021/06/10 08:28:04;;;;;;;10.60;9.60;;;21.20;99.90;;;;;;484118;244;28879;-65
2021/06/10 08:30:04;;;;;;;11.50;10.30;;;21.20;99.90;;;;;;484095;245;28800;-66
2021/06/10 08:32:06;;;;;;;13.70;12.27;;;21.20;99.90;;;;;;484116;245;28891;-67
2021/06/10 08:34:07;;;;;;;14.60;13.20;;;21.40;99.90;;;;;;484119;245;28802;-66
2021/06/10 08:36:08;;;;;;;13.60;12.27;;;21.50;99.90;;;;;;484116;245;28870;-66
2021/06/10 08:38:10;;;;;;;13.43;12.10;;;21.50;99.90;;;;;;484068;245;29294;-66
2021/06/10 08:40:11;;;;;;;11.93;10.87;;;21.50;99.90;;;;;;484179;245;29289;-66
2021/06/10 08:42:12;;;;;;;14.43;10.87;;;21.40;99.90;;;;;;484137;245;28790;-67
2021/06/10 08:44:13;;;;;;;11.90;10.10;;;21.40;99.90;;;;;;484136;245;28846;-66
2021/06/10 08:46:14;;;;;;;11.20;10.03;;;21.30;99.90;;;;;;484141;245;28794;-66
2021/06/10 08:48:16;;;;;;;12.10;10.83;;;21.30;99.90;;;;;;484141;245;28809;-66
2021/06/10 08:50:24;;;;;;;11.43;10.33;;;21.30;99.90;;;;;;484145;245;28865;-65
2021/06/10 08:52:21;;;;;;;13.70;12.30;;;21.50;99.90;;;;;;483910;245;28786;-66
2021/06/10 08:54:22;;;;;;;10.53;9.50;;;21.50;99.90;;;;;;484152;245;28851;-66
2021/06/10 08:56:23;;;;;;;11.47;10.47;;;21.50;99.90;;;;;;484144;245;28757;-66
2021/06/10 08:58:25;;;;;;;11.23;10.23;;;21.50;99.90;;;;;;484176;245;28793;-66
2021/06/10 09:00:28;;;;;;;11.77;10.63;;;21.50;99.90;;;;;;484154;245;28782;-68
2021/06/10 09:02:28;;;;;;;10.37;9.53;;;21.80;99.90;;;;;;484117;245;28786;-67
2021/06/10 09:04:29;;;;;;;11.23;10.13;;;21.80;99.90;;;;;;484159;245;30086;-66
2021/06/10 09:06:31;;;;;;;10.80;9.80;;;21.70;99.90;;;;;;484150;245;29388;-66
2021/06/10 09:08:32;;;;;;;13.37;11.97;;;21.70;99.90;;;;;;484110;245;29300;-65
2021/06/10 09:10:33;;;;;;;12.13;11.03;;;21.80;99.90;;;;;;484184;245;28727;-65
2021/06/10 09:12:34;;;;;;;12.60;10.80;;;21.90;99.90;;;;;;484177;245;28798;-67
2021/06/10 09:14:36;;;;;;;15.03;11.80;;;22.00;99.90;;;;;;484207;245;28766;-66
2021/06/10 09:16:37;;;;;;;14.23;12.83;;;22.20;99.90;;;;;;484159;245;28836;-65
2021/06/10 09:18:38;;;;;;;14.20;12.80;;;22.30;99.90;;;;;;484178;245;29223;-68
2021/06/10 09:20:45;;;;;;;12.70;11.60;;;22.30;99.90;;;;;;484168;245;29393;-66
2021/06/10 09:22:41;;;;;;;13.53;12.13;;;22.30;99.90;;;;;;483911;245;29215;-66
2021/06/10 09:24:42;;;;;;;14.43;13.00;;;22.50;99.90;;;;;;484177;245;28756;-66
2021/06/10 09:26:43;;;;;;;12.53;11.33;;;22.50;99.90;;;;;;484179;245;28807;-66
2021/06/10 09:28:50;;;;;;;12.00;10.93;;;22.50;99.90;;;;;;484222;245;28853;-68
2021/06/10 09:30:51;;;;;;;15.67;12.33;;;22.50;99.90;;;;;;484132;245;28751;-66
2021/06/10 09:32:47;;;;;;;13.90;12.60;;;22.40;99.90;;;;;;483873;245;29785;-67
2021/06/10 09:34:49;;;;;;;13.73;12.50;;;22.50;99.90;;;;;;484131;245;29219;-66
2021/06/10 09:36:50;;;;;;;15.53;13.73;;;22.50;99.90;;;;;;484044;245;29218;-66
2021/06/10 09:38:51;;;;;;;15.47;13.97;;;22.60;99.90;;;;;;484180;245;28781;-68
2021/06/10 09:40:52;;;;;;;14.73;13.40;;;22.60;99.90;;;;;;484164;245;28756;-66
2021/06/10 09:42:53;;;;;;;14.20;12.80;;;22.60;99.90;;;;;;484152;245;28856;-65
2021/06/10 09:44:57;;;;;;;14.13;12.53;;;22.50;99.90;;;;;;484160;245;28778;-66
2021/06/10 09:46:56;;;;;;;14.17;12.83;;;22.50;99.90;;;;;;484149;245;29203;-66
2021/06/10 09:48:57;;;;;;;12.27;11.00;;;22.50;99.90;;;;;;484159;245;29306;-67
2021/06/10 09:50:58;;;;;;;13.57;12.23;;;22.60;99.90;;;;;;484172;245;28832;-66
2021/06/10 09:53:01;;;;;;;11.57;10.47;;;22.70;99.90;;;;;;484154;244;28795;-66
2021/06/10 09:55:02;;;;;;;12.60;11.30;;;22.70;99.90;;;;;;484149;245;28786;-66
2021/06/10 09:57:02;;;;;;;13.93;10.47;;;22.70;99.90;;;;;;484169;245;28845;-66
2021/06/10 09:59:05;;;;;;;11.17;10.17;;;22.70;99.90;;;;;;484156;245;28777;-66
2021/06/10 10:01:05;;;;;;;11.83;10.73;;;22.90;99.90;;;;;;484124;245;29280;-65
2021/06/10 10:03:06;;;;;;;12.90;10.60;;;22.80;99.90;;;;;;484148;245;29234;-65
2021/06/10 10:05:08;;;;;;;10.03;9.13;;;22.90;99.90;;;;;;484152;245;28822;-67
2021/06/10 10:07:08;;;;;;;11.67;10.63;;;22.80;99.90;;;;;;484136;245;28820;-65
2021/06/10 10:09:11;;;;;;;12.23;10.93;;;22.90;99.90;;;;;;484162;244;28873;-66
2021/06/10 10:11:11;;;;;;;13.20;11.80;;;23.10;99.90;;;;;;484128;245;28829;-66
2021/06/10 10:13:15;;;;;;;13.87;12.50;;;23.10;99.90;;;;;;484167;245;28810;-67
2021/06/10 10:15:13;;;;;;;10.90;9.90;;;23.10;99.90;;;;;;484104;245;28794;-67
2021/06/10 10:17:15;;;;;;;11.60;10.50;;;23.00;99.90;;;;;;484165;245;29271;-65